Time;durP1;ratioP1;P1;durP2;ratioP2;P2;SDS_P1;SDS_P2;PMS_P1;PMS_P2;Temp;Humidity;BMP_temperature;BMP_pressure;BME280_temperature;BME280_humidity;BME280_pressure;Samples;Min_cycle;Max_cycle;Signal;HPM_P1;HPM_P2
2022/08/16 00:00:45;;;;;;;3.17;2.87;;;;;;;;;;5038697;28;20209;-63
2022/08/16 00:03:22;;;;;;;3.20;3.00;;;;;;;;;;5037311;28;20194;-62
2022/08/16 00:05:58;;;;;;;3.97;3.50;;;;;;;;;;5052755;28;20197;-62
2022/08/16 00:08:30;;;;;;;3.67;3.30;;;;;;;;;;5057691;28;20205;-63
2022/08/16 00:11:06;;;;;;;3.30;3.00;;;;;;;;;;5052374;28;20205;-62
2022/08/16 00:13:48;;;;;;;4.97;3.27;;;;;;;;;;5043828;28;20200;-62
2022/08/16 00:16:25;;;;;;;3.20;2.90;;;;;;;;;;5068780;28;20208;-62
2022/08/16 00:19:23;;;;;;;3.40;3.10;;;;;;;;;;5067408;28;20205;-62
2022/08/16 00:21:57;;;;;;;3.57;3.27;;;;;;;;;;5047644;28;20234;-62
2022/08/16 00:24:35;;;;;;;3.97;3.47;;;;;;;;;;5057242;28;20201;-62
2022/08/16 00:27:07;;;;;;;3.40;3.20;;;;;;;;;;5050015;28;20195;-62
2022/08/16 00:29:38;;;;;;;3.60;3.30;;;;;;;;;;5059552;28;20190;-62
2022/08/16 00:32:09;;;;;;;3.70;3.40;;;;;;;;;;5050523;28;20276;-62
2022/08/16 00:34:44;;;;;;;3.80;3.27;;;;;;;;;;5051569;28;20201;-62
2022/08/16 00:37:23;;;;;;;3.80;3.43;;;;;;;;;;5047116;28;20181;-62
2022/08/16 00:40:18;;;;;;;3.10;2.80;;;;;;;;;;5051135;28;20225;-62
2022/08/16 00:43:10;;;;;;;3.70;3.40;;;;;;;;;;5035589;28;20639;-63
2022/08/16 00:46:04;;;;;;;3.63;3.33;;;;;;;;;;5061557;28;20233;-62
2022/08/16 00:49:00;;;;;;;3.50;3.20;;;;;;;;;;5034803;28;20182;-62
2022/08/16 00:51:49;;;;;;;3.70;3.40;;;;;;;;;;5041289;28;20515;-62
2022/08/16 00:54:26;;;;;;;3.33;3.03;;;;;;;;;;5049647;28;20234;-63
2022/08/16 00:57:03;;;;;;;3.97;3.37;;;;;;;;;;5053431;28;20205;-62
2022/08/16 00:59:35;;;;;;;3.57;3.27;;;;;;;;;;5039448;28;20205;-63
2022/08/16 01:02:26;;;;;;;4.23;3.83;;;;;;;;;;5065269;28;20217;-62
2022/08/16 01:05:02;;;;;;;3.73;3.43;;;;;;;;;;5061954;28;20190;-63
2022/08/16 01:07:39;;;;;;;3.90;3.57;;;;;;;;;;5042156;28;20612;-62
2022/08/16 01:10:21;;;;;;;3.97;3.43;;;;;;;;;;5033065;28;20206;-62
2022/08/16 01:13:04;;;;;;;3.73;3.40;;;;;;;;;;5052208;28;20190;-62
2022/08/16 01:15:43;;;;;;;4.93;3.43;;;;;;;;;;5051747;28;20701;-62
2022/08/16 01:18:22;;;;;;;3.50;3.20;;;;;;;;;;5048978;28;20895;-63
2022/08/16 01:21:30;;;;;;;4.53;3.27;;;;;;;;;;5061750;28;20234;-63
2022/08/16 01:24:17;;;;;;;3.43;3.13;;;;;;;;;;5052063;28;20221;-63
2022/08/16 01:27:15;;;;;;;3.93;3.40;;;;;;;;;;5043339;28;20383;-62
2022/08/16 01:30:09;;;;;;;3.60;3.30;;;;;;;;;;5049699;28;20221;-62
2022/08/16 01:32:50;;;;;;;3.93;3.40;;;;;;;;;;5045712;28;20667;-62
2022/08/16 01:35:36;;;;;;;3.90;3.60;;;;;;;;;;5049206;28;20558;-63
2022/08/16 01:38:22;;;;;;;4.13;3.10;;;;;;;;;;5050587;28;20194;-63
2022/08/16 01:41:17;;;;;;;5.07;3.67;;;;;;;;;;5051956;28;20248;-62
2022/08/16 01:43:52;;;;;;;4.30;3.60;;;;;;;;;;5049747;28;20197;-63
2022/08/16 01:46:29;;;;;;;4.10;3.30;;;;;;;;;;5061389;28;20204;-62
2022/08/16 01:49:11;;;;;;;5.17;3.40;;;;;;;;;;5065543;28;20194;-62
2022/08/16 01:51:43;;;;;;;3.47;3.17;;;;;;;;;;5038429;28;20198;-62
2022/08/16 01:54:14;;;;;;;3.37;3.07;;;;;;;;;;5075361;28;20244;-62
2022/08/16 01:56:59;;;;;;;3.63;3.33;;;;;;;;;;5066734;28;20217;-62
2022/08/16 01:59:30;;;;;;;3.73;3.33;;;;;;;;;;5076967;28;20587;-62
2022/08/16 02:02:04;;;;;;;3.40;3.20;;;;;;;;;;5065966;28;20213;-63
2022/08/16 02:04:58;;;;;;;3.40;2.90;;;;;;;;;;5086208;28;20665;-63
2022/08/16 02:07:30;;;;;;;4.13;3.30;;;;;;;;;;5069368;28;20207;-62
2022/08/16 02:10:01;;;;;;;3.40;3.10;;;;;;;;;;5062025;28;20201;-63
2022/08/16 02:12:33;;;;;;;3.43;3.13;;;;;;;;;;5083138;28;20690;-62
2022/08/16 02:15:22;;;;;;;3.20;2.90;;;;;;;;;;5063066;28;20202;-63
2022/08/16 02:17:58;;;;;;;3.17;2.90;;;;;;;;;;5072793;28;20215;-63
2022/08/16 02:20:31;;;;;;;3.43;3.20;;;;;;;;;;5063177;28;20670;-63
2022/08/16 02:23:12;;;;;;;3.80;3.40;;;;;;;;;;5068952;28;20216;-62
2022/08/16 02:25:40;;;;;;;3.50;3.20;;;;;;;;;;5083274;28;20193;-62
2022/08/16 02:28:24;;;;;;;3.00;2.80;;;;;;;;;;5071794;28;20192;-62
2022/08/16 02:30:59;;;;;;;3.70;3.30;;;;;;;;;;5068708;28;20680;-62
2022/08/16 02:33:30;;;;;;;3.90;3.50;;;;;;;;;;5043082;28;20217;-62
2022/08/16 02:36:14;;;;;;;3.73;3.43;;;;;;;;;;5055528;28;20252;-62
2022/08/16 02:39:06;;;;;;;3.60;3.30;;;;;;;;;;5048115;28;20206;-62
2022/08/16 02:41:36;;;;;;;3.80;3.50;;;;;;;;;;5086367;28;20216;-62
2022/08/16 02:44:07;;;;;;;3.43;3.07;;;;;;;;;;5059015;28;20202;-63
2022/08/16 02:46:42;;;;;;;3.83;3.43;;;;;;;;;;5077817;28;20242;-62
2022/08/16 02:49:19;;;;;;;3.60;3.30;;;;;;;;;;5062347;28;20196;-62
2022/08/16 02:51:51;;;;;;;4.00;3.23;;;;;;;;;;5064737;28;20717;-61
2022/08/16 02:54:21;;;;;;;3.27;3.03;;;;;;;;;;5077790;28;20233;-62
2022/08/16 02:57:06;;;;;;;4.20;2.87;;;;;;;;;;5055513;28;20378;-62
2022/08/16 02:59:37;;;;;;;3.50;3.20;;;;;;;;;;5054714;28;20235;-62
2022/08/16 03:02:09;;;;;;;3.50;3.20;;;;;;;;;;5071368;28;20201;-62
2022/08/16 03:04:38;;;;;;;3.53;3.23;;;;;;;;;;5085892;28;20205;-62
2022/08/16 03:07:21;;;;;;;3.37;3.13;;;;;;;;;;5082265;28;20296;-62
2022/08/16 03:09:57;;;;;;;3.37;3.07;;;;;;;;;;5071244;28;20212;-62
2022/08/16 03:12:29;;;;;;;3.40;3.10;;;;;;;;;;5082486;28;20200;-62
2022/08/16 03:15:25;;;;;;;3.97;2.90;;;;;;;;;;5081943;28;20211;-62
2022/08/16 03:17:55;;;;;;;3.17;2.97;;;;;;;;;;5075169;28;20223;-62
2022/08/16 03:20:26;;;;;;;3.37;3.13;;;;;;;;;;5074123;28;20217;-62
2022/08/16 03:23:03;;;;;;;3.13;2.90;;;;;;;;;;5087562;28;20293;-62
2022/08/16 03:25:36;;;;;;;3.87;3.13;;;;;;;;;;5085455;28;20867;-62
2022/08/16 03:28:13;;;;;;;3.30;3.00;;;;;;;;;;5069812;28;20216;-61
2022/08/16 03:30:47;;;;;;;3.00;2.80;;;;;;;;;;5088866;28;20197;-62
2022/08/16 03:33:17;;;;;;;3.10;2.80;;;;;;;;;;5068414;28;20401;-62
2022/08/16 03:35:49;;;;;;;3.30;3.00;;;;;;;;;;5079504;28;20189;-62
2022/08/16 03:38:26;;;;;;;3.43;3.17;;;;;;;;;;5079944;28;20199;-62
2022/08/16 03:41:04;;;;;;;3.33;3.07;;;;;;;;;;5091352;28;20644;-62
2022/08/16 03:43:56;;;;;;;3.30;3.00;;;;;;;;;;5091286;28;20205;-62
2022/08/16 03:46:31;;;;;;;3.03;2.77;;;;;;;;;;5095286;28;20252;-62
2022/08/16 03:49:19;;;;;;;3.40;3.10;;;;;;;;;;5069895;28;20193;-62
2022/08/16 03:52:03;;;;;;;3.10;2.80;;;;;;;;;;5091248;28;20231;-62
2022/08/16 03:54:34;;;;;;;2.90;2.70;;;;;;;;;;5094199;28;20248;-62
2022/08/16 03:57:04;;;;;;;3.10;2.90;;;;;;;;;;5082064;28;20741;-62
2022/08/16 03:59:43;;;;;;;3.30;3.00;;;;;;;;;;5098054;28;20200;-62
2022/08/16 04:02:19;;;;;;;3.13;2.93;;;;;;;;;;5089282;28;20277;-62
2022/08/16 04:05:01;;;;;;;3.03;2.80;;;;;;;;;;5080765;28;20258;-62
2022/08/16 04:07:32;;;;;;;3.43;3.13;;;;;;;;;;5062730;28;20844;-62
2022/08/16 04:10:07;;;;;;;3.40;3.10;;;;;;;;;;5061774;28;20254;-62
2022/08/16 04:12:57;;;;;;;3.23;3.03;;;;;;;;;;5078329;28;20288;-62
2022/08/16 04:15:39;;;;;;;5.13;3.13;;;;;;;;;;5072785;28;20204;-63
2022/08/16 04:18:08;;;;;;;3.20;2.90;;;;;;;;;;5079252;28;20231;-62
2022/08/16 04:20:38;;;;;;;3.10;2.90;;;;;;;;;;5076735;28;20747;-63
2022/08/16 04:23:12;;;;;;;3.40;3.10;;;;;;;;;;5063065;28;20225;-64
2022/08/16 04:25:42;;;;;;;3.17;2.87;;;;;;;;;;5058996;28;20216;-62
2022/08/16 04:28:16;;;;;;;3.20;2.93;;;;;;;;;;5087327;28;20547;-62
2022/08/16 04:31:07;;;;;;;3.13;2.90;;;;;;;;;;5074179;28;20825;-61
2022/08/16 04:33:37;;;;;;;3.10;2.80;;;;;;;;;;5064086;28;20832;-61
2022/08/16 04:36:16;;;;;;;3.07;2.87;;;;;;;;;;5088178;28;20197;-61
2022/08/16 04:38:48;;;;;;;2.90;2.70;;;;;;;;;;5088971;28;20268;-62
2022/08/16 04:41:20;;;;;;;3.27;3.07;;;;;;;;;;5062117;28;20216;-63
2022/08/16 04:44:01;;;;;;;4.53;2.80;;;;;;;;;;5065190;28;20185;-63
2022/08/16 04:46:51;;;;;;;3.10;2.90;;;;;;;;;;5056703;28;20755;-62
2022/08/16 04:49:44;;;;;;;3.00;2.80;;;;;;;;;;5080386;28;20212;-61
2022/08/16 04:52:13;;;;;;;2.90;2.70;;;;;;;;;;5068231;28;20205;-63
2022/08/16 04:55:04;;;;;;;3.20;2.90;;;;;;;;;;5077594;28;20247;-63
2022/08/16 04:57:36;;;;;;;2.67;2.47;;;;;;;;;;5072010;28;20218;-64
2022/08/16 05:00:24;;;;;;;3.23;2.93;;;;;;;;;;5069145;28;20193;-64
2022/08/16 05:03:05;;;;;;;3.00;2.80;;;;;;;;;;5083137;28;20208;-63
2022/08/16 05:05:37;;;;;;;3.07;2.87;;;;;;;;;;5069692;28;20271;-62
2022/08/16 05:08:27;;;;;;;2.77;2.57;;;;;;;;;;5071011;28;20216;-62
2022/08/16 05:11:01;;;;;;;2.77;2.57;;;;;;;;;;5081848;28;20217;-64
2022/08/16 05:13:36;;;;;;;2.70;2.50;;;;;;;;;;5071429;28;20292;-64
2022/08/16 05:16:31;;;;;;;2.87;2.67;;;;;;;;;;5085720;28;20201;-64
2022/08/16 05:19:16;;;;;;;2.93;2.73;;;;;;;;;;5078680;28;20200;-64
2022/08/16 05:21:46;;;;;;;3.07;2.80;;;;;;;;;;5056660;28;20193;-63
2022/08/16 05:24:19;;;;;;;3.10;2.87;;;;;;;;;;5081905;28;20224;-63
2022/08/16 05:26:52;;;;;;;2.97;2.77;;;;;;;;;;5061888;28;20193;-64
2022/08/16 05:29:25;;;;;;;2.87;2.67;;;;;;;;;;5085774;28;20861;-63
2022/08/16 05:32:15;;;;;;;2.80;2.60;;;;;;;;;;5080875;28;20217;-64
2022/08/16 05:35:06;;;;;;;3.20;2.97;;;;;;;;;;5070391;28;20204;-64
2022/08/16 05:37:44;;;;;;;2.93;2.50;;;;;;;;;;5073232;28;20572;-63
2022/08/16 05:40:16;;;;;;;3.30;3.00;;;;;;;;;;5066830;28;20188;-64
2022/08/16 05:42:50;;;;;;;4.60;2.80;;;;;;;;;;5083516;28;20217;-64
2022/08/16 05:45:23;;;;;;;3.70;2.80;;;;;;;;;;5066110;28;20227;-64
2022/08/16 05:48:08;;;;;;;2.73;2.53;;;;;;;;;;5068395;28;20197;-64
2022/08/16 05:50:39;;;;;;;2.87;2.67;;;;;;;;;;5068740;28;20192;-64
2022/08/16 05:53:12;;;;;;;3.13;2.83;;;;;;;;;;5081083;28;20289;-64
2022/08/16 05:55:45;;;;;;;2.93;2.73;;;;;;;;;;5079446;28;20744;-64
2022/08/16 05:58:17;;;;;;;7.83;2.97;;;;;;;;;;5082075;28;20202;-64
2022/08/16 06:01:00;;;;;;;2.80;2.60;;;;;;;;;;5084116;28;20208;-62
2022/08/16 06:03:33;;;;;;;3.47;2.70;;;;;;;;;;5084549;28;20228;-63
2022/08/16 06:06:06;;;;;;;3.10;2.80;;;;;;;;;;5079863;28;20220;-62
2022/08/16 06:08:42;;;;;;;3.30;3.00;;;;;;;;;;5078688;28;20205;-63
2022/08/16 06:11:19;;;;;;;3.50;2.87;;;;;;;;;;5082346;28;20209;-65
2022/08/16 06:13:55;;;;;;;2.70;2.50;;;;;;;;;;5078955;28;20201;-64
2022/08/16 06:16:26;;;;;;;3.37;3.07;;;;;;;;;;5078622;28;20431;-64
2022/08/16 06:18:57;;;;;;;3.10;2.90;;;;;;;;;;5066472;28;20528;-64
2022/08/16 06:21:31;;;;;;;3.20;3.00;;;;;;;;;;5080889;28;20212;-64
2022/08/16 06:24:04;;;;;;;3.60;2.80;;;;;;;;;;5079337;28;20662;-63
2022/08/16 06:27:01;;;;;;;3.37;3.03;;;;;;;;;;5082595;28;20196;-64
2022/08/16 06:29:37;;;;;;;3.80;3.50;;;;;;;;;;5081637;28;20591;-64
2022/08/16 06:32:10;;;;;;;3.20;2.90;;;;;;;;;;5075386;28;20213;-64
2022/08/16 06:34:56;;;;;;;3.73;3.40;;;;;;;;;;5085302;28;20209;-64
2022/08/16 06:37:32;;;;;;;3.40;3.20;;;;;;;;;;5069670;28;20223;-64
2022/08/16 06:40:05;;;;;;;3.93;3.60;;;;;;;;;;5075365;28;20196;-62
2022/08/16 06:42:40;;;;;;;3.60;3.30;;;;;;;;;;5083181;28;20240;-62
2022/08/16 06:45:27;;;;;;;3.37;3.07;;;;;;;;;;5068762;28;20200;-63
2022/08/16 06:47:58;;;;;;;3.67;3.37;;;;;;;;;;5080429;28;20197;-64
2022/08/16 06:50:31;;;;;;;3.57;3.27;;;;;;;;;;5086097;28;20584;-62
2022/08/16 06:53:05;;;;;;;3.60;3.30;;;;;;;;;;5075094;28;20228;-62
2022/08/16 06:55:39;;;;;;;3.67;3.40;;;;;;;;;;5085102;28;20235;-61
2022/08/16 06:58:10;;;;;;;4.20;3.87;;;;;;;;;;5085067;28;20615;-65
2022/08/16 07:00:51;;;;;;;4.70;3.67;;;;;;;;;;5073810;28;20217;-62
2022/08/16 07:03:28;;;;;;;5.30;4.87;;;;;;;;;;5088050;28;20212;-62
2022/08/16 07:06:23;;;;;;;5.97;4.93;;;;;;;;;;5070573;28;20269;-64
2022/08/16 07:08:54;;;;;;;8.77;5.50;;;;;;;;;;5074831;28;20209;-63
2022/08/16 07:11:30;;;;;;;7.97;5.20;;;;;;;;;;5071489;28;20585;-61
2022/08/16 07:14:16;;;;;;;7.50;5.60;;;;;;;;;;5085336;28;20731;-62
2022/08/16 07:16:54;;;;;;;8.27;5.00;;;;;;;;;;5071066;28;20239;-61
2022/08/16 07:19:31;;;;;;;7.97;5.63;;;;;;;;;;5087717;28;20212;-61
2022/08/16 07:22:23;;;;;;;6.07;5.23;;;;;;;;;;5073537;28;20307;-63
2022/08/16 07:25:14;;;;;;;6.73;6.00;;;;;;;;;;5073210;28;20274;-61
2022/08/16 07:27:46;;;;;;;5.97;4.90;;;;;;;;;;5101188;28;20193;-61
2022/08/16 07:30:18;;;;;;;6.30;5.70;;;;;;;;;;5087067;28;20208;-63
2022/08/16 07:33:10;;;;;;;6.40;5.57;;;;;;;;;;5072484;28;20212;-63
2022/08/16 07:35:48;;;;;;;6.07;5.57;;;;;;;;;;5085754;28;20192;-63
2022/08/16 07:38:18;;;;;;;6.73;5.93;;;;;;;;;;5084324;28;20189;-64
2022/08/16 07:41:09;;;;;;;6.20;5.60;;;;;;;;;;5081751;28;20286;-63
2022/08/16 07:43:37;;;;;;;6.30;5.70;;;;;;;;;;5087482;28;20216;-64
2022/08/16 07:46:10;;;;;;;6.03;5.53;;;;;;;;;;5069976;28;20205;-64
2022/08/16 07:49:01;;;;;;;7.43;6.00;;;;;;;;;;5084152;28;20185;-62
2022/08/16 07:51:38;;;;;;;6.73;5.33;;;;;;;;;;5084472;28;20604;-63
2022/08/16 07:54:16;;;;;;;5.90;5.50;;;;;;;;;;5080008;28;20252;-64
2022/08/16 07:57:05;;;;;;;6.10;5.50;;;;;;;;;;5056172;28;20213;-62
2022/08/16 07:59:38;;;;;;;6.23;5.73;;;;;;;;;;5074781;28;20196;-61
2022/08/16 08:02:13;;;;;;;7.73;5.50;;;;;;;;;;5027882;28;20208;-64
2022/08/16 08:04:49;;;;;;;6.47;5.60;;;;;;;;;;5067977;28;20220;-64
2022/08/16 08:07:23;;;;;;;6.20;5.60;;;;;;;;;;5076551;28;20197;-64
2022/08/16 08:10:01;;;;;;;6.17;5.50;;;;;;;;;;5074476;28;20205;-63
2022/08/16 08:12:32;;;;;;;6.80;6.10;;;;;;;;;;5082090;28;20193;-62
2022/08/16 08:15:08;;;;;;;6.50;5.90;;;;;;;;;;5056965;28;20208;-62
2022/08/16 08:17:38;;;;;;;6.23;5.40;;;;;;;;;;5084854;28;20219;-62
2022/08/16 08:20:13;;;;;;;6.27;5.73;;;;;;;;;;5063242;28;20220;-63
2022/08/16 08:22:56;;;;;;;7.37;5.47;;;;;;;;;;5080892;28;20213;-64
2022/08/16 08:25:29;;;;;;;6.00;5.40;;;;;;;;;;5061585;28;20800;-64
2022/08/16 08:28:21;;;;;;;8.63;6.03;;;;;;;;;;5081501;28;20189;-64
2022/08/16 08:30:54;;;;;;;6.00;5.47;;;;;;;;;;5082009;28;20595;-62
2022/08/16 08:33:31;;;;;;;6.63;6.03;;;;;;;;;;5085733;28;20197;-61
2022/08/16 08:36:06;;;;;;;6.33;5.60;;;;;;;;;;5071084;28;20202;-63
2022/08/16 08:38:36;;;;;;;5.93;5.40;;;;;;;;;;5066427;28;20213;-62
2022/08/16 08:41:14;;;;;;;6.50;5.90;;;;;;;;;;5072987;28;20193;-62
2022/08/16 08:43:48;;;;;;;6.27;5.67;;;;;;;;;;5061878;28;20438;-62
2022/08/16 08:46:22;;;;;;;7.77;5.87;;;;;;;;;;5068994;28;20643;-62
2022/08/16 08:48:56;;;;;;;6.90;5.73;;;;;;;;;;5054872;28;20678;-61
2022/08/16 08:51:31;;;;;;;12.17;6.77;;;;;;;;;;5073178;28;20188;-64
2022/08/16 08:54:05;;;;;;;10.10;6.57;;;;;;;;;;5053522;28;20196;-64
2022/08/16 08:56:40;;;;;;;14.33;6.50;;;;;;;;;;5068677;28;20205;-62
2022/08/16 08:59:14;;;;;;;15.13;6.87;;;;;;;;;;5070905;28;20213;-62
2022/08/16 09:01:47;;;;;;;14.33;6.63;;;;;;;;;;5076798;28;20221;-64
2022/08/16 09:04:27;;;;;;;16.87;6.30;;;;;;;;;;5076360;28;20216;-64
2022/08/16 09:06:58;;;;;;;15.53;6.50;;;;;;;;;;5071190;28;20272;-64
2022/08/16 09:09:28;;;;;;;14.67;5.97;;;;;;;;;;5085228;28;20630;-64
2022/08/16 09:12:02;;;;;;;12.53;5.80;;;;;;;;;;5079578;28;20213;-63
2022/08/16 09:14:38;;;;;;;10.17;5.90;;;;;;;;;;5067469;28;20193;-63
2022/08/16 09:17:19;;;;;;;9.50;5.83;;;;;;;;;;5081267;28;20615;-63
2022/08/16 09:20:15;;;;;;;7.30;5.23;;;;;;;;;;5074091;28;20225;-64
2022/08/16 09:22:52;;;;;;;7.50;5.07;;;;;;;;;;5067387;28;20255;-64
2022/08/16 09:25:24;;;;;;;8.63;5.00;;;;;;;;;;5080666;28;20208;-63
2022/08/16 09:28:03;;;;;;;9.87;5.10;;;;;;;;;;5068663;28;20239;-63
2022/08/16 09:30:35;;;;;;;6.23;5.00;;;;;;;;;;5081879;28;20193;-63
2022/08/16 09:33:17;;;;;;;6.97;4.73;;;;;;;;;;5078361;28;20197;-63
2022/08/16 09:35:49;;;;;;;7.57;5.00;;;;;;;;;;5068976;28;20200;-64
2022/08/16 09:38:27;;;;;;;4.97;4.40;;;;;;;;;;5067283;28;20629;-64
2022/08/16 09:41:00;;;;;;;5.57;4.57;;;;;;;;;;5077463;28;20195;-64
2022/08/16 09:43:31;;;;;;;5.10;4.50;;;;;;;;;;5060783;28;20739;-63
2022/08/16 09:46:24;;;;;;;5.17;4.00;;;;;;;;;;5064607;28;20568;-63
2022/08/16 09:49:14;;;;;;;4.67;4.10;;;;;;;;;;5078329;28;20208;-63
2022/08/16 09:51:53;;;;;;;4.73;4.10;;;;;;;;;;5069357;28;20609;-64
2022/08/16 09:54:34;;;;;;;5.97;4.27;;;;;;;;;;5073479;28;20260;-63
2022/08/16 09:57:03;;;;;;;4.80;4.30;;;;;;;;;;5051215;28;20637;-64
2022/08/16 09:59:33;;;;;;;4.40;4.00;;;;;;;;;;5063347;28;20284;-64
2022/08/16 10:02:07;;;;;;;5.07;3.97;;;;;;;;;;5068965;28;20275;-63
2022/08/16 10:04:59;;;;;;;4.10;3.73;;;;;;;;;;5073145;28;20213;-63
2022/08/16 10:07:42;;;;;;;4.40;4.00;;;;;;;;;;5072180;28;20589;-63
2022/08/16 10:10:23;;;;;;;4.07;3.77;;;;;;;;;;5083114;28;20212;-64
2022/08/16 10:13:10;;;;;;;4.50;3.93;;;;;;;;;;5072058;28;20193;-63
2022/08/16 10:15:45;;;;;;;4.20;3.90;;;;;;;;;;5082311;28;20630;-63
2022/08/16 10:18:26;;;;;;;4.10;3.80;;;;;;;;;;5074385;28;20240;-62
2022/08/16 10:21:17;;;;;;;5.13;4.10;;;;;;;;;;5073211;28;20200;-63
2022/08/16 10:24:01;;;;;;;5.07;4.17;;;;;;;;;;5073722;28;20220;-64
2022/08/16 10:26:32;;;;;;;4.13;3.80;;;;;;;;;;5091727;28;20254;-64
2022/08/16 10:29:25;;;;;;;4.13;3.83;;;;;;;;;;5084138;28;20523;-64
2022/08/16 10:32:19;;;;;;;7.23;3.83;;;;;;;;;;5085670;28;20197;-63
2022/08/16 10:34:53;;;;;;;5.17;3.90;;;;;;;;;;5084733;28;20227;-63
2022/08/16 10:37:25;;;;;;;5.97;3.80;;;;;;;;;;5052294;28;20198;-64
2022/08/16 10:40:05;;;;;;;7.03;4.00;;;;;;;;;;5085774;28;20224;-64
2022/08/16 10:42:58;;;;;;;7.20;3.73;;;;;;;;;;5079492;28;20737;-64
2022/08/16 10:45:34;;;;;;;4.07;3.70;;;;;;;;;;5088703;28;20297;-65
2022/08/16 10:48:06;;;;;;;3.73;3.37;;;;;;;;;;5064174;28;20208;-64
2022/08/16 10:50:56;;;;;;;4.07;3.33;;;;;;;;;;5069594;28;20209;-65
2022/08/16 10:53:28;;;;;;;3.40;3.10;;;;;;;;;;5072722;28;20193;-64
2022/08/16 10:56:12;;;;;;;3.70;3.40;;;;;;;;;;5073240;28;20236;-63
2022/08/16 10:59:08;;;;;;;5.00;3.10;;;;;;;;;;5071618;28;20288;-63
2022/08/16 11:01:58;;;;;;;3.60;3.30;;;;;;;;;;5077126;28;20213;-64
2022/08/16 11:04:50;;;;;;;3.60;3.17;;;;;;;;;;5069040;28;20206;-64
2022/08/16 11:07:40;;;;;;;3.63;3.30;;;;;;;;;;5075405;28;20654;-63
2022/08/16 11:10:24;;;;;;;3.50;2.87;;;;;;;;;;5069982;28;20241;-68
2022/08/16 11:13:20;;;;;;;3.00;2.80;;;;;;;;;;5073636;28;20720;-64
2022/08/16 11:16:13;;;;;;;3.50;3.20;;;;;;;;;;5084672;28;20192;-64
2022/08/16 11:19:05;;;;;;;3.77;3.20;;;;;;;;;;5086276;28;20203;-64
2022/08/16 11:21:44;;;;;;;3.77;2.80;;;;;;;;;;5087260;28;20695;-64
2022/08/16 11:24:39;;;;;;;2.93;2.73;;;;;;;;;;5058112;28;20216;-64
2022/08/16 11:27:16;;;;;;;3.50;3.17;;;;;;;;;;5060001;28;20668;-64
2022/08/16 11:29:51;;;;;;;3.30;3.10;;;;;;;;;;5076204;28;20540;-64
2022/08/16 11:32:27;;;;;;;3.10;2.90;;;;;;;;;;5072240;28;20243;-64
2022/08/16 11:35:04;;;;;;;3.03;2.80;;;;;;;;;;5083003;28;20577;-64
2022/08/16 11:38:15;;;;;;;3.23;2.93;;;;;;;;;;5061229;28;20236;-65
2022/08/16 11:41:12;;;;;;;2.77;2.57;;;;;;;;;;5082542;28;20197;-66
2022/08/16 11:43:45;;;;;;;3.10;2.90;;;;;;;;;;5082393;28;20204;-64
2022/08/16 11:46:19;;;;;;;2.90;2.70;;;;;;;;;;5082085;28;20228;-64
2022/08/16 11:49:16;;;;;;;3.20;2.90;;;;;;;;;;5085909;28;20181;-65
2022/08/16 11:51:48;;;;;;;3.03;2.83;;;;;;;;;;5084808;28;20203;-65
2022/08/16 11:54:20;;;;;;;2.97;2.77;;;;;;;;;;5048127;28;20233;-65
2022/08/16 11:57:10;;;;;;;4.73;2.47;;;;;;;;;;5078181;28;20205;-64
2022/08/16 12:00:00;;;;;;;4.10;3.20;;;;;;;;;;5069408;28;20202;-64
2022/08/16 12:02:28;;;;;;;3.07;2.87;;;;;;;;;;5054521;28;20282;-64
2022/08/16 12:05:01;;;;;;;3.00;2.70;;;;;;;;;;5065394;28;20531;-65
2022/08/16 12:07:33;;;;;;;3.13;2.67;;;;;;;;;;5053007;28;20228;-65
2022/08/16 12:10:09;;;;;;;3.40;3.10;;;;;;;;;;5066881;28;20225;-65
2022/08/16 12:13:05;;;;;;;5.10;3.03;;;;;;;;;;5075214;28;20211;-64
2022/08/16 12:15:38;;;;;;;3.13;2.83;;;;;;;;;;5085632;28;20711;-63
2022/08/16 12:18:08;;;;;;;3.40;2.80;;;;;;;;;;5084066;28;20243;-63
2022/08/16 12:20:41;;;;;;;3.10;2.90;;;;;;;;;;5066897;28;20258;-65
2022/08/16 12:23:12;;;;;;;3.37;3.00;;;;;;;;;;5056814;28;20205;-64
2022/08/16 12:25:45;;;;;;;2.80;2.60;;;;;;;;;;5075277;28;20240;-63
2022/08/16 12:28:15;;;;;;;3.60;2.90;;;;;;;;;;5083461;28;20687;-64
2022/08/16 12:31:12;;;;;;;2.87;2.67;;;;;;;;;;5078183;28;20186;-65
2022/08/16 12:33:54;;;;;;;2.50;2.33;;;;;;;;;;5068307;28;20208;-64
2022/08/16 12:36:28;;;;;;;4.10;2.87;;;;;;;;;;5054457;28;20734;-65
2022/08/16 12:38:59;;;;;;;2.90;2.70;;;;;;;;;;5076785;28;20580;-65
2022/08/16 12:41:31;;;;;;;3.03;2.83;;;;;;;;;;5086459;28;20310;-65
2022/08/16 12:44:06;;;;;;;3.23;2.97;;;;;;;;;;5076935;28;20247;-64
2022/08/16 12:46:36;;;;;;;2.77;2.57;;;;;;;;;;5063869;28;20205;-66
2022/08/16 12:49:07;;;;;;;2.87;2.67;;;;;;;;;;5080894;28;20250;-65
2022/08/16 12:51:41;;;;;;;2.80;2.60;;;;;;;;;;5064081;28;20194;-66
2022/08/16 12:54:27;;;;;;;2.90;2.57;;;;;;;;;;5075335;28;20240;-65
2022/08/16 12:57:00;;;;;;;2.67;2.47;;;;;;;;;;5081449;28;20213;-64
2022/08/16 12:59:41;;;;;;;2.87;2.67;;;;;;;;;;5071866;28;20666;-64
2022/08/16 13:02:11;;;;;;;3.40;3.10;;;;;;;;;;5084499;28;20212;-63
2022/08/16 13:05:06;;;;;;;3.00;2.80;;;;;;;;;;5080256;28;20197;-64
2022/08/16 13:07:44;;;;;;;3.23;2.93;;;;;;;;;;5076818;28;20281;-64
2022/08/16 13:10:20;;;;;;;3.57;2.57;;;;;;;;;;5082869;28;20654;-63
2022/08/16 13:13:08;;;;;;;3.20;2.90;;;;;;;;;;5071207;28;20220;-63
2022/08/16 13:15:42;;;;;;;3.20;2.70;;;;;;;;;;5082161;28;20215;-65
2022/08/16 13:18:28;;;;;;;5.27;2.93;;;;;;;;;;5076388;28;20285;-64
2022/08/16 13:21:13;;;;;;;3.43;2.80;;;;;;;;;;5083024;28;20306;-68
2022/08/16 13:23:43;;;;;;;4.50;2.77;;;;;;;;;;5078155;28;20224;-68
2022/08/16 13:26:20;;;;;;;5.40;3.10;;;;;;;;;;5085865;28;20258;-68
2022/08/16 13:28:55;;;;;;;3.43;2.63;;;;;;;;;;5072266;28;20196;-68
2022/08/16 13:31:30;;;;;;;3.07;2.87;;;;;;;;;;5079548;28;20649;-68
2022/08/16 13:33:59;;;;;;;3.53;2.63;;;;;;;;;;5065377;28;20197;-68
2022/08/16 13:36:36;;;;;;;3.23;3.00;;;;;;;;;;5082401;28;20239;-68
2022/08/16 13:39:17;;;;;;;2.70;2.50;;;;;;;;;;5068644;28;20216;-68
2022/08/16 13:41:49;;;;;;;3.03;2.80;;;;;;;;;;5073069;28;20223;-68
2022/08/16 13:44:22;;;;;;;3.10;2.90;;;;;;;;;;5079086;28;20248;-68
2022/08/16 13:47:16;;;;;;;3.03;2.83;;;;;;;;;;5070637;28;20296;-68
2022/08/16 13:49:50;;;;;;;3.00;2.70;;;;;;;;;;5071872;28;20192;-68
2022/08/16 13:52:24;;;;;;;3.40;2.83;;;;;;;;;;5076651;28;20189;-68
2022/08/16 13:55:03;;;;;;;2.77;2.57;;;;;;;;;;5058044;28;20241;-70
2022/08/16 13:57:45;;;;;;;3.10;2.87;;;;;;;;;;5046581;28;20247;-68
2022/08/16 14:00:36;;;;;;;2.90;2.60;;;;;;;;;;5063184;28;20226;-66
2022/08/16 14:03:07;;;;;;;2.63;2.43;;;;;;;;;;5048983;28;20226;-65
2022/08/16 14:05:37;;;;;;;3.03;2.70;;;;;;;;;;5041619;28;20226;-65
2022/08/16 14:08:10;;;;;;;2.87;2.67;;;;;;;;;;5043804;28;20209;-65
2022/08/16 14:10:42;;;;;;;2.77;2.50;;;;;;;;;;5050478;28;20214;-69
2022/08/16 14:13:19;;;;;;;2.77;2.57;;;;;;;;;;5061363;28;20186;-68
2022/08/16 14:15:50;;;;;;;3.33;2.67;;;;;;;;;;5017175;28;20202;-65
2022/08/16 14:18:23;;;;;;;3.03;2.83;;;;;;;;;;5055252;28;20195;-63
2022/08/16 14:20:59;;;;;;;2.83;2.63;;;;;;;;;;5062703;28;20848;-69
2022/08/16 14:23:33;;;;;;;2.90;2.70;;;;;;;;;;5055888;28;20219;-68
2022/08/16 14:26:04;;;;;;;2.73;2.50;;;;;;;;;;5047402;28;20337;-68
2022/08/16 14:28:38;;;;;;;2.70;2.50;;;;;;;;;;5054760;28;20240;-68
2022/08/16 14:31:12;;;;;;;2.80;2.60;;;;;;;;;;5061759;28;20496;-69
2022/08/16 14:33:41;;;;;;;2.93;2.73;;;;;;;;;;5056674;28;20596;-69
2022/08/16 14:36:14;;;;;;;4.00;2.60;;;;;;;;;;5050456;28;20688;-65
2022/08/16 14:38:59;;;;;;;2.80;2.47;;;;;;;;;;5063592;28;20361;-65
2022/08/16 14:41:31;;;;;;;3.87;2.63;;;;;;;;;;5060142;28;20198;-64
2022/08/16 14:44:02;;;;;;;3.00;2.80;;;;;;;;;;5064876;28;20258;-64
2022/08/16 14:46:35;;;;;;;3.03;2.73;;;;;;;;;;5075543;28;20291;-68
2022/08/16 14:49:06;;;;;;;2.97;2.77;;;;;;;;;;5065635;28;20189;-68
2022/08/16 14:51:37;;;;;;;2.90;2.70;;;;;;;;;;5048422;28;20194;-64
2022/08/16 14:54:05;;;;;;;2.60;2.40;;;;;;;;;;5070704;28;20205;-65
2022/08/16 14:56:37;;;;;;;2.83;2.63;;;;;;;;;;5062186;28;20248;-64
2022/08/16 14:59:23;;;;;;;4.27;2.67;;;;;;;;;;5050808;28;20200;-64
2022/08/16 15:01:56;;;;;;;2.70;2.50;;;;;;;;;;5036127;28;20194;-68
2022/08/16 15:04:31;;;;;;;3.00;2.80;;;;;;;;;;5039067;28;20220;-68
2022/08/16 15:07:19;;;;;;;3.17;2.87;;;;;;;;;;5047891;28;20247;-68
2022/08/16 15:09:52;;;;;;;2.80;2.60;;;;;;;;;;5032600;28;20627;-68
2022/08/16 15:12:29;;;;;;;2.80;2.60;;;;;;;;;;5049524;28;20550;-68
2022/08/16 15:15:07;;;;;;;2.67;2.47;;;;;;;;;;5047722;28;20244;-68
2022/08/16 15:17:45;;;;;;;2.90;2.70;;;;;;;;;;5060869;28;20201;-68
2022/08/16 15:20:25;;;;;;;3.57;2.80;;;;;;;;;;5052674;28;20222;-68
2022/08/16 15:22:58;;;;;;;2.83;2.63;;;;;;;;;;5046422;28;20209;-68
2022/08/16 15:25:29;;;;;;;2.87;2.67;;;;;;;;;;5051647;28;20214;-68
2022/08/16 15:28:03;;;;;;;3.20;3.00;;;;;;;;;;5060096;28;20241;-69
2022/08/16 15:30:50;;;;;;;2.47;2.27;;;;;;;;;;5060495;28;20203;-68
2022/08/16 15:33:27;;;;;;;3.10;2.90;;;;;;;;;;5068838;28;20523;-68
2022/08/16 15:36:01;;;;;;;2.77;2.57;;;;;;;;;;5060858;28;20558;-68
2022/08/16 15:38:37;;;;;;;2.87;2.67;;;;;;;;;;5066892;28;20209;-68
2022/08/16 15:41:48;;;;;;;2.80;2.60;;;;;;;;;;5063607;28;20265;-68
2022/08/16 15:44:22;;;;;;;2.80;2.60;;;;;;;;;;5067969;28;20198;-68
2022/08/16 15:46:55;;;;;;;3.03;2.80;;;;;;;;;;5047949;28;20558;-65
2022/08/16 15:49:33;;;;;;;3.23;2.90;;;;;;;;;;5063425;28;20222;-65